ADDS METAR Data INFO
IDs: Format: Raw Decoded Include TAF

Data at: 0218 UTC 14 Dec 2017

KELK 140155Z AUTO 33004KT 10SM CLR 06/M07 A2994 RMK AO2 T00581069
KELK 140135Z AUTO 01007KT 10SM CLR 06/M07 A2994 RMK AO2 T00601069
KELK 140115Z AUTO 00000KT 10SM CLR 07/M06 A2994 RMK AO2 T00711065
KELK 140055Z AUTO 00000KT 10SM CLR 07/M06 A2993 RMK AO2 T00651065
KELK 140035Z AUTO 35004KT 10SM CLR 08/M06 A2993 RMK AO2 T00751061
KELK 140015Z AUTO 01005KT 10SM CLR 08/M07 A2993 RMK AO2 T00811071
KELK 132355Z AUTO 02005KT 10SM CLR 12/M07 A2993 RMK AO2 T01181072 10192 20109
KELK 132335Z AUTO 02006KT 10SM CLR 11/M07 A2992 RMK AO2 T01131075
KELK 132315Z AUTO 02003KT 10SM CLR 13/M07 A2992 RMK AO2 T01311072
KELK 132255Z AUTO 03004KT 10SM CLR 15/M07 A2992 RMK AO2 T01501071
KELK 132235Z AUTO 02004KT 10SM CLR 17/M07 A2992 RMK AO2 T01711072
KELK 132215Z AUTO 04005KT 10SM CLR 18/M07 A2991 RMK AO2 T01801072
KELK 132155Z AUTO 06004KT 10SM CLR 18/M08 A2992 RMK AO2 T01831076
KELK 132135Z AUTO 04005KT 10SM CLR 19/M07 A2992 RMK AO2 T01871072
KELK 132115Z AUTO 03009KT 10SM CLR 19/M07 A2992 RMK AO2 T01911072
KELK 132055Z AUTO 04008KT 10SM CLR 19/M07 A2992 RMK AO2 T01901070
KELK 132035Z AUTO 05008KT 10SM CLR 19/M07 A2993 RMK AO2 T01891070
KELK 132015Z AUTO 03008G17KT 10SM CLR 19/M07 A2993 RMK AO2 T01921072
KELK 131955Z AUTO 05010KT 10SM CLR 19/M07 A2994 RMK AO2 T01921070
KELK 131935Z AUTO 05009KT 10SM CLR 19/M07 A2994 RMK AO2 T01901072
KELK 131915Z AUTO 05013KT 10SM CLR 19/M07 A2995 RMK AO2 T01881072
KELK 131855Z AUTO 06013G18KT 10SM CLR 19/M07 A2996 RMK AO2 T01891070
KELK 131835Z AUTO 04015G19KT 10SM CLR 19/M07 A2997 RMK AO2 T01881066
KELK 131815Z AUTO 04016G22KT 10SM CLR 18/M06 A2997 RMK AO2 T01841061
KELK 131755Z AUTO 03018G21KT 10SM CLR 18/M06 A2998 RMK AO2 T01811063 10184 20012
KELK 131735Z AUTO 03016G21KT 10SM CLR 18/M07 A2998 RMK AO2 T01811070
KELK 131715Z AUTO 02016G21KT 10SM CLR 17/M07 A2998 RMK AO2 T01741075
KELK 131655Z AUTO 02016G23KT 10SM CLR 17/M08 A2999 RMK AO2 T01661080
KELK 131635Z AUTO 01014KT 10SM CLR 15/M08 A2998 RMK AO2 T01501082
KELK 131615Z AUTO 36015KT 10SM CLR 14/M08 A2998 RMK AO2 T01371085
KELK 131555Z AUTO 35012G16KT 10SM CLR 12/M09 A2998 RMK AO2 T01231086
KELK 131535Z AUTO 34010KT 10SM CLR 11/M09 A2998 RMK AO2 T01101090
KELK 131515Z AUTO 32005KT 10SM CLR 09/M09 A2997 RMK AO2 T00931089
KELK 131455Z AUTO 31010KT 10SM CLR 09/M09 A2996 RMK AO2 T00881095
KELK 131435Z AUTO 31011KT 10SM CLR 08/M09 A2995 RMK AO2 T00771089
KELK 131415Z AUTO 32004KT 10SM CLR 02/M08 A2995 RMK AO2 T00161081
KELK 131355Z AUTO 00000KT 10SM CLR 01/M09 A2994 RMK AO2 T00131092
KELK 131335Z AUTO 21006KT 10SM CLR 03/M09 A2993 RMK AO2 T00271092
KELK 131315Z AUTO 20007KT 10SM CLR 02/M09 A2992 RMK AO2 T00221094
KELK 131255Z AUTO 23003KT 10SM CLR 04/M10 A2991 RMK AO2 T00431097
KELK 131235Z AUTO 22004KT 10SM CLR 04/M10 A2991 RMK AO2 T00361096
KELK 131215Z AUTO 21004KT 10SM CLR 05/M10 A2991 RMK AO2 T00511102
KELK 131155Z AUTO 00000KT 10SM CLR 06/M10 A2991 RMK AO2 T00581104 10090 20048
KELK 131135Z AUTO 00000KT 10SM CLR 06/M10 A2991 RMK AO2 T00561104
KELK 131115Z AUTO 24004KT 10SM CLR 07/M10 A2992 RMK AO2 T00741105
KELK 131055Z AUTO 25004KT 10SM CLR 07/M10 A2992 RMK AO2 T00701103
KELK 131035Z AUTO 26004KT 10SM CLR 07/M11 A2993 RMK AO2 T00671106
KELK 131015Z AUTO 25006KT 10SM CLR 07/M10 A2994 RMK AO2 T00681105
KELK 130955Z AUTO 26009KT 10SM CLR 07/M10 A2995 RMK AO2 T00701105
KELK 130935Z AUTO 25009KT 10SM CLR 06/M10 A2996 RMK AO2 T00641101
KELK 130915Z AUTO 22006KT 10SM CLR 06/M10 A2996 RMK AO2 T00601100
KELK 130855Z AUTO 23010KT 10SM CLR 06/M10 A2997 RMK AO2 T00611101
KELK 130835Z AUTO 24007KT 10SM CLR 08/M10 A2998 RMK AO2 T00771100
KELK 130815Z AUTO 25006KT 10SM CLR 08/M10 A2998 RMK AO2 T00781102
KELK 130755Z AUTO 26008KT 10SM CLR 08/M10 A2998 RMK AO2 T00781100
KELK 130735Z AUTO 27009KT 10SM CLR 08/M10 A2999 RMK AO2 T00811100
KELK 130715Z AUTO 30005KT 10SM CLR 08/M10 A3000 RMK AO2 T00811098
KELK 130655Z AUTO 25009KT 10SM CLR 09/M10 A3001 RMK AO2 T00901097
KELK 130635Z AUTO 21006KT 10SM CLR 06/M08 A3002 RMK AO2 T00641083
KELK 130615Z AUTO 22007KT 10SM CLR 07/M08 A3003 RMK AO2 T00661081
KELK 130555Z AUTO 22007KT 10SM CLR 06/M08 A3004 RMK AO2 T00641077 10095 20032 401421030
KELK 130535Z AUTO 22008KT 10SM CLR 06/M07 A3005 RMK AO2 T00601072
KELK 130515Z AUTO 21006KT 10SM CLR 05/M07 A3006 RMK AO2 T00471070
KELK 130455Z AUTO 21006KT 10SM CLR 05/M07 A3007 RMK AO2 T00491066
KELK 130435Z AUTO 20006KT 10SM CLR 04/M06 A3008 RMK AO2 T00381065
KELK 130415Z AUTO 19004KT 10SM CLR 04/M06 A3010 RMK AO2 T00401065
KELK 130355Z AUTO 19004KT 10SM CLR 05/M06 A3011 RMK AO2 T00451064
KELK 130335Z AUTO 20005KT 10SM CLR 05/M06 A3012 RMK AO2 T00501062
KELK 130315Z AUTO 21007KT 10SM CLR 06/M06 A3013 RMK AO2 T00581061
KELK 130255Z AUTO 20006KT 10SM CLR 05/M06 A3013 RMK AO2 T00521060
KELK 130235Z AUTO 19006KT 10SM CLR 05/M06 A3014 RMK AO2 T00511061
KELK 130215Z AUTO 19004KT 10SM CLR 06/M06 A3015 RMK AO2 T00601061
KELK 130155Z AUTO 19006KT 10SM CLR 06/M06 A3016 RMK AO2 T00561061
KELK 130135Z AUTO 19007KT 10SM CLR 07/M06 A3017 RMK AO2 T00651061
KELK 130120Z AUTO 20008KT 10SM CLR 07/M06 A3017 RMK AO2 T00741060
KELK 130055Z AUTO 20009KT 10SM CLR 09/M06 A3017 RMK AO2 T00851062
KELK 130035Z AUTO 21010KT 10SM CLR 09/M06 A3018 RMK AO2 T00901063
KELK 130015Z AUTO 21009KT 10SM CLR 09/M06 A3018 RMK AO2 T00911062
KELK 122355Z AUTO 20008KT 10SM CLR 09/M06 A3018 RMK AO2 T00921060 10142 20090
KELK 122335Z AUTO 19007KT 10SM CLR 10/M07 A3019 RMK AO2 T00991066
KELK 122315Z AUTO 20006KT 10SM CLR 12/M07 A3020 RMK AO2 T01171068
KELK 122255Z AUTO 20010KT 10SM CLR 13/M07 A3020 RMK AO2 T01281074
KELK 122235Z AUTO 21007KT 10SM CLR 14/M08 A3021 RMK AO2 T01351076
KELK 122215Z AUTO 21009KT 10SM CLR 14/M07 A3022 RMK AO2 T01361073
KELK 122155Z AUTO 23010KT 10SM CLR 14/M07 A3023 RMK AO2 T01391069
KELK 122135Z AUTO 22007KT 10SM CLR 14/M06 A3024 RMK AO2 T01381063
KELK 122115Z AUTO 21009KT 10SM CLR 14/M05 A3025 RMK AO2 T01401055
KELK 122055Z AUTO 26008KT 10SM CLR 14/M06 A3026 RMK AO2 T01361058
KELK 122035Z AUTO 23007KT 10SM CLR 14/M05 A3027 RMK AO2 T01361055
KELK 122015Z AUTO 26009KT 10SM CLR 14/M05 A3028 RMK AO2 T01351054
KELK 121955Z AUTO 28006KT 10SM CLR 13/M05 A3030 RMK AO2 T01261053
KELK 121935Z AUTO 23007KT 10SM CLR 12/M05 A3032 RMK AO2 T01241049
KELK 121915Z AUTO 29006KT 10SM CLR 12/M05 A3034 RMK AO2 T01181049
KELK 121855Z AUTO 30005KT 10SM CLR 11/M04 A3035 RMK AO2 T01091041
KELK 121835Z AUTO 31005KT 10SM CLR 10/M04 A3037 RMK AO2 T00991039
KELK 121815Z AUTO 29006KT 10SM CLR 10/M04 A3038 RMK AO2 T00991036
KELK 121755Z AUTO 32006KT 10SM CLR 09/M03 A3040 RMK AO2 T00881031 10088 21030
KELK 121735Z AUTO 31005KT 10SM CLR 08/M03 A3041 RMK AO2 T00811031
KELK 121715Z AUTO 00000KT 10SM CLR 07/M03 A3042 RMK AO2 T00721031
KELK 121655Z AUTO 33005KT 10SM CLR 07/M03 A3043 RMK AO2 T00671032
KELK 121635Z AUTO 35005KT 10SM CLR 06/M03 A3043 RMK AO2 T00611033
KELK 121615Z AUTO 34007KT 10SM CLR 05/M04 A3044 RMK AO2 T00541037
KELK 121555Z AUTO 33004KT 10SM CLR 05/M04 A3044 RMK AO2 T00451039
KELK 121535Z AUTO 33006KT 10SM CLR 03/M04 A3044 RMK AO2 T00321043
KELK 121515Z AUTO 32007KT 10SM CLR 02/M05 A3044 RMK AO2 T00191048
KELK 121455Z AUTO 31005KT 10SM CLR 01/M05 A3044 RMK AO2 T00061050
KELK 121435Z AUTO 31006KT 10SM CLR M01/M06 A3044 RMK AO2 T10091057